createdAt,value
2022-11-19T05:07:22.996Z,25.80
2022-11-19T05:09:50.255Z,26.53
2022-11-19T05:12:17.231Z,30.73
2022-11-19T05:14:46.804Z,30.17
2022-11-19T05:17:13.834Z,29.23
2022-11-19T05:19:41.291Z,30.63
2022-11-19T05:22:11.404Z,28.70
2022-11-19T05:24:38.460Z,30.70
2022-11-19T05:27:05.609Z,29.10
2022-11-19T05:29:33.012Z,29.00
2022-11-19T05:32:02.125Z,27.63
2022-11-19T05:34:29.036Z,32.30
2022-11-19T05:36:57.560Z,30.98
2022-11-19T05:39:25.003Z,28.90
2022-11-19T05:41:52.720Z,30.00
2022-11-19T05:44:19.933Z,28.70
2022-11-19T05:46:46.883Z,27.52
2022-11-19T05:49:13.965Z,27.23
2022-11-19T05:51:41.023Z,27.98
2022-11-19T05:54:11.413Z,27.45
2022-11-19T05:56:38.595Z,26.60
2022-11-19T05:59:08.881Z,25.95
2022-11-19T06:01:40.559Z,25.88
2022-11-19T06:04:11.404Z,25.53
2022-11-19T06:06:46.407Z,24.13
2022-11-19T06:09:21.950Z,23.47
2022-11-19T06:11:50.629Z,24.17
2022-11-19T06:14:30.091Z,24.60
2022-11-19T06:17:03.582Z,23.83
2022-11-19T06:19:33.652Z,21.03
2022-11-19T06:22:08.950Z,26.97
2022-11-19T06:24:41.334Z,23.70
2022-11-19T06:27:10.912Z,23.03
2022-11-19T06:29:37.996Z,27.33
2022-11-19T06:32:05.212Z,25.77
2022-11-19T06:34:36.868Z,25.50
2022-11-19T06:37:07.129Z,27.50
2022-11-19T06:39:40.704Z,23.23
2022-11-19T06:42:45.224Z,25.90
2022-11-19T06:45:20.042Z,25.67
2022-11-19T06:47:54.807Z,25.40
2022-11-19T06:50:21.932Z,26.37
2022-11-19T07:38:36.677Z,21.98
2022-11-19T07:41:24.919Z,21.55
2022-11-19T07:43:54.289Z,22.50
2022-11-19T07:46:21.823Z,22.20
2022-11-19T07:48:56.344Z,20.45
2022-11-19T07:51:30.240Z,21.83
2022-11-19T07:54:04.162Z,20.75
2022-11-19T07:56:31.455Z,20.38
2022-11-19T07:59:00.690Z,19.33
2022-11-19T08:01:27.740Z,20.52
2022-11-19T08:03:56.752Z,21.15
2022-11-19T08:06:26.505Z,20.10
2022-11-19T08:08:56.109Z,19.52
2022-11-19T08:11:24.463Z,20.13
2022-11-19T08:13:52.156Z,19.20
2022-11-19T08:16:49.533Z,17.70
2022-11-19T08:21:59.430Z,17.73
2022-11-19T08:24:26.307Z,22.57
2022-11-19T08:26:53.210Z,17.53
2022-11-19T08:29:23.880Z,17.10
2022-11-19T08:31:52.202Z,18.17
2022-11-19T08:34:19.490Z,19.00
2022-11-19T08:36:46.829Z,18.70
2022-11-19T08:55:23.435Z,15.33
2022-11-19T08:57:51.745Z,18.10
2022-11-19T09:00:21.026Z,16.00
2022-11-19T09:02:50.501Z,17.10
2022-11-19T09:05:23.403Z,18.47
2022-11-19T09:07:52.881Z,18.60
2022-11-19T09:10:23.666Z,14.83
2022-11-19T09:12:56.030Z,16.07
2022-11-19T09:15:23.315Z,17.07
2022-11-19T09:17:50.959Z,14.73
2022-11-19T09:20:21.835Z,15.17
2022-11-19T09:22:49.932Z,16.00
2022-11-19T09:25:18.310Z,17.80
2022-11-19T09:27:47.046Z,13.80
2022-11-19T09:30:18.204Z,17.13
2022-11-19T09:32:45.782Z,14.97
2022-11-19T09:35:18.930Z,15.00
2022-11-19T09:37:46.464Z,14.23
2022-11-19T09:40:20.977Z,15.67
2022-11-19T09:43:16.966Z,15.23
2022-11-19T09:46:17.513Z,14.87
2022-11-19T09:48:46.432Z,14.33
2022-11-19T09:51:17.197Z,13.50
2022-11-19T09:54:00.360Z,12.87
2022-11-19T09:59:05.183Z,14.20
2022-11-19T10:01:35.540Z,14.68
2022-11-19T10:04:05.063Z,13.80
2022-11-19T10:07:08.915Z,14.00
2022-11-19T10:09:52.516Z,12.33
2022-11-19T10:12:31.504Z,14.23
2022-11-19T10:15:10.937Z,14.73
2022-11-19T10:18:16.258Z,12.87
2022-11-19T10:20:52.499Z,13.40
2022-11-19T10:23:45.471Z,12.77
2022-11-19T10:26:16.510Z,14.73
2022-11-19T10:28:55.765Z,12.63
2022-11-19T10:31:46.251Z,11.87
2022-11-19T10:34:30.590Z,12.23
2022-11-19T10:37:12.211Z,13.23
2022-11-19T10:39:45.153Z,16.60
2022-11-19T10:42:34.508Z,11.53
2022-11-19T10:45:31.261Z,13.43
2022-11-19T10:48:09.368Z,10.80
2022-11-19T10:50:37.536Z,10.87
2022-11-19T10:53:26.625Z,11.00
2022-11-19T10:56:01.883Z,9.30
2022-11-19T10:58:43.675Z,9.93
2022-11-19T11:01:33.300Z,9.83
2022-11-19T11:04:21.058Z,10.27
2022-11-19T11:06:59.892Z,8.83
2022-11-19T11:09:40.375Z,13.00
2022-11-19T11:12:44.923Z,10.03
2022-11-19T11:15:29.360Z,9.90
2022-11-19T11:18:15.991Z,10.57
2022-11-19T11:20:51.229Z,8.03
2022-11-19T11:23:22.962Z,8.90
2022-11-19T11:26:12.710Z,9.43
2022-11-19T11:29:00.904Z,10.40
2022-11-19T11:31:37.533Z,10.05
2022-11-19T11:34:10.618Z,10.05
2022-11-19T11:36:40.979Z,9.95
2022-11-19T11:39:23.213Z,9.52
2022-11-19T11:42:05.480Z,9.65
2022-11-19T11:44:37.477Z,9.48
2022-11-19T11:47:21.235Z,9.00
2022-11-19T11:49:57.720Z,10.05
2022-11-19T11:52:40.657Z,8.95
2022-11-19T11:55:17.110Z,10.75
2022-11-19T11:57:55.594Z,9.25
2022-11-19T12:00:44.425Z,9.50
2022-11-19T12:03:19.253Z,9.32
2022-11-19T12:06:08.866Z,8.77
2022-11-19T12:09:04.270Z,9.05
2022-11-19T12:11:54.437Z,9.35
2022-11-19T12:14:31.466Z,8.48
2022-11-19T12:17:33.249Z,8.82
2022-11-19T12:20:37.674Z,15.95
2022-11-19T12:23:23.066Z,8.65
2022-11-19T12:26:00.951Z,8.48
2022-11-19T12:28:30.940Z,8.77
2022-11-19T12:31:12.603Z,9.47
2022-11-19T12:34:01.186Z,8.17
2022-11-19T12:36:59.862Z,8.45
2022-11-19T12:39:36.205Z,8.65
2022-11-19T12:42:12.501Z,7.93
2022-11-19T12:44:54.909Z,8.07
2022-11-19T12:47:53.369Z,7.90
2022-11-19T12:50:59.143Z,7.60
2022-11-19T12:53:29.768Z,7.70
2022-11-19T12:56:22.171Z,7.82
2022-11-19T12:59:14.434Z,8.35
2022-11-19T13:01:49.109Z,7.13
2022-11-19T13:04:34.956Z,7.60
2022-11-19T14:09:43.386Z,8.07
2022-11-19T14:12:33.303Z,6.73
2022-11-19T14:15:44.770Z,9.37
2022-11-19T14:18:40.753Z,8.90
2022-11-19T14:21:49.955Z,7.60
2022-11-19T14:24:44.869Z,9.53
2022-11-19T14:27:26.671Z,7.17
2022-11-19T14:30:00.587Z,6.90
2022-11-19T14:32:47.216Z,8.33
2022-11-19T14:35:32.108Z,7.27
2022-11-19T14:38:39.371Z,7.97
2022-11-19T14:41:22.084Z,7.20
2022-11-19T14:44:14.937Z,7.50
2022-11-19T14:46:45.762Z,7.27
2022-11-19T14:49:32.913Z,6.70
2022-11-19T14:52:05.226Z,8.27
2022-11-19T14:54:38.225Z,7.43
2022-11-19T14:57:17.627Z,7.87
2022-11-19T15:00:01.344Z,7.57
2022-11-19T15:02:46.659Z,6.80
2022-11-19T15:05:23.308Z,8.00
2022-11-19T15:08:13.675Z,10.77
2022-11-19T15:13:44.033Z,7.87
2022-11-19T15:16:19.928Z,6.90
2022-11-19T15:18:51.602Z,9.27
2022-11-19T15:21:40.055Z,8.90
2022-11-19T15:24:19.429Z,8.33
2022-11-19T15:27:08.707Z,6.93
2022-11-19T15:30:16.979Z,9.30
2022-11-19T15:33:12.575Z,15.67
2022-11-19T15:35:57.591Z,15.40
2022-11-19T15:38:42.475Z,29.27
2022-11-19T15:41:16.089Z,26.40
2022-11-19T15:43:54.602Z,20.47
2022-11-19T15:46:33.454Z,19.40
2022-11-19T15:49:23.730Z,25.20
2022-11-19T15:51:57.896Z,10.23
2022-11-19T15:54:32.263Z,9.57
2022-11-19T15:57:15.827Z,14.30
2022-11-19T15:59:46.681Z,11.00
2022-11-19T16:02:44.833Z,13.50
2022-11-19T16:05:30.549Z,14.07
2022-11-19T16:08:06.000Z,19.40
2022-11-19T16:10:42.979Z,22.47
2022-11-19T16:13:57.251Z,26.47
2022-11-19T16:16:50.018Z,36.97
2022-11-19T16:19:18.615Z,22.00
2022-11-19T16:21:58.194Z,16.50
2022-11-19T16:24:48.885Z,21.93
2022-11-19T16:27:28.124Z,22.70
2022-11-19T16:29:58.667Z,23.77
2022-11-19T16:32:31.015Z,20.13
2022-11-19T16:35:25.366Z,18.87
2022-11-19T16:37:54.455Z,24.07
2022-11-19T16:40:23.253Z,23.70
2022-11-19T16:42:57.666Z,13.87
2022-11-19T16:45:30.344Z,16.67
2022-11-19T16:47:59.848Z,12.37
2022-11-19T16:50:33.799Z,13.20
2022-11-19T16:53:01.813Z,12.47
2022-11-19T16:55:34.030Z,14.73
